createdAt,value
2024-01-20T00:00:34.162Z,17.80
2024-01-20T00:01:34.149Z,17.80
2024-01-20T00:02:34.259Z,17.79
2024-01-20T00:03:34.236Z,17.81
2024-01-20T00:04:34.361Z,17.81
2024-01-20T00:05:34.309Z,17.80
2024-01-20T00:06:34.346Z,17.79
2024-01-20T00:07:34.341Z,17.78
2024-01-20T00:08:34.370Z,17.82
2024-01-20T00:09:38.920Z,17.74
2024-01-20T00:10:35.384Z,17.73
2024-01-20T00:11:34.521Z,17.78
2024-01-20T00:12:34.600Z,17.79
2024-01-20T00:13:34.698Z,17.76
2024-01-20T00:14:34.612Z,17.77
2024-01-20T00:15:34.622Z,17.76
2024-01-20T00:16:34.665Z,17.77
2024-01-20T00:17:34.882Z,17.80
2024-01-20T00:18:34.755Z,17.79
2024-01-20T00:19:34.940Z,17.79
2024-01-20T00:20:35.613Z,17.80
2024-01-20T00:21:34.732Z,17.80
2024-01-20T00:22:35.011Z,17.83
2024-01-20T00:23:34.936Z,17.80
2024-01-20T00:24:34.873Z,17.83
2024-01-20T00:25:35.162Z,17.80
2024-01-20T00:26:34.949Z,17.81
2024-01-20T00:27:34.946Z,17.81
2024-01-20T00:28:35.067Z,17.83
2024-01-20T00:29:34.999Z,17.80
2024-01-20T00:30:35.058Z,17.83
2024-01-20T00:31:35.097Z,17.84
2024-01-20T00:32:35.185Z,17.81
2024-01-20T00:33:35.203Z,17.83
2024-01-20T00:34:50.364Z,17.82
2024-01-20T00:35:36.203Z,17.80
2024-01-20T00:36:35.217Z,17.81
2024-01-20T00:37:35.245Z,17.79
2024-01-20T00:38:35.229Z,17.79
2024-01-20T00:39:35.160Z,17.78
2024-01-20T00:40:35.270Z,17.76
2024-01-20T00:41:35.173Z,17.79
2024-01-20T00:42:35.281Z,17.77
2024-01-20T00:43:35.285Z,17.80
2024-01-20T00:44:35.274Z,17.80
2024-01-20T00:45:35.181Z,17.81
2024-01-20T00:46:35.208Z,17.82
2024-01-20T00:47:37.734Z,17.82
2024-01-20T00:48:35.216Z,17.78
2024-01-20T00:49:35.275Z,17.81
2024-01-20T00:50:35.274Z,17.80
2024-01-20T00:51:35.199Z,17.81
2024-01-20T00:52:35.214Z,17.80
2024-01-20T00:53:35.205Z,17.79
2024-01-20T00:54:35.149Z,17.77
2024-01-20T00:55:35.288Z,17.79
2024-01-20T00:56:35.145Z,17.78
2024-01-20T00:57:35.263Z,17.79
2024-01-20T00:58:35.235Z,17.76
2024-01-20T00:59:35.278Z,17.75
2024-01-20T01:00:35.214Z,17.77
2024-01-20T01:01:35.270Z,17.75
2024-01-20T01:02:36.224Z,17.72
2024-01-20T01:03:35.229Z,17.71
2024-01-20T01:04:35.466Z,17.68
2024-01-20T01:05:35.186Z,17.68
2024-01-20T01:06:35.349Z,17.68
2024-01-20T01:07:35.829Z,17.65
2024-01-20T01:08:35.196Z,17.64
2024-01-20T01:09:35.228Z,17.62
2024-01-20T01:10:35.298Z,17.68
2024-01-20T01:11:35.263Z,17.66
2024-01-20T01:12:35.198Z,17.68
2024-01-20T01:13:35.244Z,17.66
2024-01-20T01:14:35.170Z,17.67
2024-01-20T01:15:35.191Z,17.69
2024-01-20T01:16:35.240Z,17.68
2024-01-20T01:17:35.250Z,17.69
2024-01-20T01:18:35.210Z,17.70
2024-01-20T01:19:35.209Z,17.75
2024-01-20T01:20:35.241Z,17.76
2024-01-20T01:21:35.232Z,17.75
2024-01-20T01:22:35.242Z,17.72
2024-01-20T01:23:35.207Z,17.73
2024-01-20T01:24:35.180Z,17.73
2024-01-20T01:25:35.192Z,17.71
2024-01-20T01:26:35.468Z,17.71
2024-01-20T01:27:35.348Z,17.71
2024-01-20T01:28:35.261Z,17.72
2024-01-20T01:29:35.374Z,17.69
2024-01-20T01:30:35.360Z,17.69
2024-01-20T01:31:35.412Z,17.68
2024-01-20T01:32:35.509Z,17.67
2024-01-20T01:33:35.450Z,17.65
2024-01-20T01:34:35.519Z,17.68
2024-01-20T01:35:35.553Z,17.62
2024-01-20T01:36:35.535Z,17.61
2024-01-20T01:37:35.609Z,17.61
2024-01-20T01:38:35.709Z,17.61
2024-01-20T01:39:35.688Z,17.54
2024-01-20T01:40:35.839Z,17.56
2024-01-20T01:41:35.744Z,17.55
2024-01-20T01:42:35.770Z,17.55
2024-01-20T01:43:35.790Z,17.62
2024-01-20T01:44:35.866Z,17.61
2024-01-20T01:45:35.880Z,17.61
2024-01-20T01:46:36.048Z,17.66
2024-01-20T01:47:35.948Z,17.64
2024-01-20T01:48:36.031Z,17.64
2024-01-20T01:49:36.074Z,17.61
2024-01-20T01:50:36.114Z,17.58
2024-01-20T01:51:36.145Z,17.52
2024-01-20T01:52:36.144Z,17.49
2024-01-20T01:53:36.237Z,17.56
2024-01-20T01:54:36.225Z,17.55
2024-01-20T01:55:36.240Z,17.64
2024-01-20T01:56:36.292Z,17.58
2024-01-20T01:57:36.361Z,17.57
2024-01-20T01:58:36.413Z,17.52
2024-01-20T01:59:36.427Z,17.58
2024-01-20T02:00:37.555Z,17.53
2024-01-20T02:01:36.462Z,17.53
2024-01-20T02:02:36.494Z,17.55
2024-01-20T02:03:36.591Z,17.59
2024-01-20T02:04:36.536Z,17.56
2024-01-20T02:05:36.630Z,17.53
2024-01-20T02:06:36.730Z,17.50
2024-01-20T02:07:36.670Z,17.54
2024-01-20T02:08:36.746Z,17.54
2024-01-20T02:09:36.746Z,17.56
2024-01-20T02:10:36.813Z,17.61
2024-01-20T02:11:36.860Z,17.57
2024-01-20T02:12:36.851Z,17.57
2024-01-20T02:13:36.932Z,17.51
2024-01-20T02:14:36.921Z,17.54
2024-01-20T02:15:37.054Z,17.52
2024-01-20T02:16:36.994Z,17.54
2024-01-20T02:17:37.091Z,17.55
2024-01-20T02:18:37.264Z,17.53
2024-01-20T02:19:37.160Z,17.53
2024-01-20T02:20:37.162Z,17.56
2024-01-20T02:21:37.234Z,17.60
2024-01-20T02:22:37.243Z,17.58
2024-01-20T02:23:37.289Z,17.57
2024-01-20T02:24:37.354Z,17.62
2024-01-20T02:25:38.205Z,17.61
2024-01-20T02:26:37.417Z,17.61
2024-01-20T02:27:37.494Z,17.64
2024-01-20T02:28:37.495Z,17.62
2024-01-20T02:29:37.503Z,17.60
2024-01-20T02:30:37.595Z,17.61
2024-01-20T02:31:37.613Z,17.60
2024-01-20T02:32:37.775Z,17.63
2024-01-20T02:33:37.771Z,17.59
2024-01-20T02:34:37.767Z,17.58
2024-01-20T02:35:37.745Z,17.61
2024-01-20T02:36:37.792Z,17.59
2024-01-20T02:37:37.864Z,17.57
2024-01-20T02:38:37.862Z,17.56
2024-01-20T02:39:37.923Z,17.58
2024-01-20T02:40:37.918Z,17.57
2024-01-20T02:41:38.087Z,17.61
2024-01-20T02:42:38.608Z,17.63
2024-01-20T02:43:38.056Z,17.65
2024-01-20T02:44:38.112Z,17.61
2024-01-20T02:45:38.180Z,17.70
2024-01-20T02:46:38.159Z,17.76
2024-01-20T02:47:38.251Z,17.77
2024-01-20T02:48:38.253Z,17.67
2024-01-20T02:49:38.498Z,17.72
2024-01-20T02:50:38.252Z,17.72
2024-01-20T02:51:38.301Z,17.65
2024-01-20T02:52:38.353Z,17.72
2024-01-20T02:53:38.367Z,17.70
2024-01-20T02:54:38.572Z,17.65
2024-01-20T02:55:38.435Z,17.64
2024-01-20T02:56:38.493Z,17.62
2024-01-20T02:57:38.542Z,17.61
2024-01-20T02:58:38.560Z,17.52
2024-01-20T02:59:38.628Z,17.50
2024-01-20T03:00:38.885Z,17.50
2024-01-20T03:01:38.677Z,17.55
2024-01-20T03:02:38.808Z,17.52
2024-01-20T03:03:38.854Z,17.42
2024-01-20T03:04:38.810Z,17.43
2024-01-20T03:05:38.930Z,17.39
2024-01-20T03:06:38.919Z,17.35
2024-01-20T03:07:38.893Z,17.37
2024-01-20T03:08:38.943Z,17.38
2024-01-20T03:09:38.962Z,17.39
2024-01-20T03:10:39.011Z,17.40
2024-01-20T03:11:39.055Z,17.43
2024-01-20T03:12:39.113Z,17.43
2024-01-20T03:13:39.137Z,17.45
2024-01-20T03:14:39.143Z,17.42
2024-01-20T03:15:39.242Z,17.45
2024-01-20T03:16:39.211Z,17.44
2024-01-20T03:17:39.353Z,17.46
2024-01-20T03:18:39.322Z,17.43
2024-01-20T03:19:39.345Z,17.48
2024-01-20T03:20:39.397Z,17.49
2024-01-20T03:21:39.385Z,17.47
2024-01-20T03:22:39.415Z,17.48
2024-01-20T03:23:39.454Z,17.43
2024-01-20T03:24:39.569Z,17.41
2024-01-20T03:25:39.521Z,17.47
2024-01-20T03:26:39.583Z,17.51
2024-01-20T03:27:39.702Z,17.44
2024-01-20T03:28:40.686Z,17.42
2024-01-20T03:29:39.664Z,17.50
2024-01-20T03:30:39.730Z,17.43
2024-01-20T03:31:39.761Z,17.43
2024-01-20T03:32:39.824Z,17.46
2024-01-20T03:33:39.973Z,17.38
2024-01-20T03:34:39.891Z,17.41
2024-01-20T03:35:39.905Z,17.38
2024-01-20T03:36:39.968Z,17.42
2024-01-20T03:37:40.009Z,17.41
2024-01-20T03:38:40.026Z,17.44
2024-01-20T03:39:40.052Z,17.48
2024-01-20T03:40:40.015Z,17.50
2024-01-20T03:41:40.099Z,17.52
2024-01-20T03:42:40.100Z,17.47
2024-01-20T03:43:40.372Z,17.51
2024-01-20T03:44:40.165Z,17.48
2024-01-20T03:45:40.237Z,17.54
2024-01-20T03:46:40.294Z,17.49
2024-01-20T03:47:40.309Z,17.48
2024-01-20T03:48:40.456Z,17.48
2024-01-20T03:49:40.437Z,17.51
2024-01-20T03:50:40.512Z,17.51
2024-01-20T03:51:40.417Z,17.48
2024-01-20T03:52:40.477Z,17.51
2024-01-20T03:53:40.474Z,17.50
2024-01-20T03:54:40.488Z,17.50
2024-01-20T03:55:40.556Z,17.54
2024-01-20T03:56:40.611Z,17.46
2024-01-20T03:57:41.253Z,17.45
2024-01-20T03:58:40.732Z,17.52
2024-01-20T03:59:40.733Z,17.51
2024-01-20T04:00:40.878Z,17.44
2024-01-20T04:01:40.874Z,17.48
2024-01-20T04:02:40.805Z,17.54
2024-01-20T04:03:40.890Z,17.50
2024-01-20T04:04:40.884Z,17.47
2024-01-20T04:05:40.930Z,17.53
2024-01-20T04:06:40.932Z,17.47
2024-01-20T04:07:40.994Z,17.44
2024-01-20T04:08:40.992Z,17.43
2024-01-20T04:09:41.062Z,17.45
2024-01-20T04:10:41.053Z,17.44
2024-01-20T04:11:41.168Z,17.44
2024-01-20T04:12:41.126Z,17.40
2024-01-20T04:13:41.192Z,17.43
2024-01-20T04:14:41.217Z,17.41
2024-01-20T04:15:41.248Z,17.41
2024-01-20T04:16:41.250Z,17.38
2024-01-20T04:17:41.711Z,17.38
2024-01-20T04:18:41.439Z,17.41
2024-01-20T04:19:42.188Z,17.39
2024-01-20T04:20:41.468Z,17.39
2024-01-20T04:21:41.456Z,17.43
2024-01-20T04:22:41.498Z,17.41
2024-01-20T04:23:41.505Z,17.41
2024-01-20T04:24:41.676Z,17.39
2024-01-20T04:25:48.818Z,17.39
2024-01-20T04:26:48.818Z,17.37
2024-01-20T04:27:48.809Z,17.37
2024-01-20T04:28:48.808Z,17.39
2024-01-20T04:29:48.862Z,17.38
2024-01-20T04:30:48.830Z,17.41
2024-01-20T04:31:56.252Z,17.44
2024-01-20T04:32:56.270Z,17.41
2024-01-20T04:33:56.149Z,17.40
2024-01-20T04:34:56.090Z,17.38
2024-01-20T04:35:56.201Z,17.40
2024-01-20T04:36:56.020Z,17.38
2024-01-20T04:37:56.016Z,17.39
2024-01-20T04:38:56.063Z,17.36
2024-01-20T04:39:56.722Z,17.40
2024-01-20T04:40:56.115Z,17.38
2024-01-20T04:41:56.088Z,17.38
2024-01-20T04:42:56.104Z,17.42
2024-01-20T04:43:56.080Z,17.42
2024-01-20T04:44:56.050Z,17.44
2024-01-20T04:45:56.051Z,17.42
2024-01-20T04:46:56.151Z,17.43
2024-01-20T04:47:56.305Z,17.42
2024-01-20T04:48:56.109Z,17.43
2024-01-20T04:49:56.241Z,17.42
2024-01-20T04:50:56.094Z,17.44
2024-01-20T04:51:56.196Z,17.42
2024-01-20T04:52:56.096Z,17.40
2024-01-20T04:53:56.316Z,17.36
2024-01-20T04:54:56.725Z,17.35
2024-01-20T04:55:56.113Z,17.34
2024-01-20T04:56:56.124Z,17.30
2024-01-20T04:57:56.070Z,17.25
2024-01-20T04:58:56.052Z,17.25
2024-01-20T04:59:56.121Z,17.28
2024-01-20T05:00:56.138Z,17.25
2024-01-20T05:01:56.151Z,17.24
2024-01-20T05:02:56.148Z,17.26
2024-01-20T05:03:56.302Z,17.19
2024-01-20T05:04:56.074Z,17.16
2024-01-20T05:05:56.181Z,17.19
2024-01-20T05:06:56.210Z,17.22
2024-01-20T05:07:56.191Z,17.16
2024-01-20T05:08:56.137Z,17.17
2024-01-20T05:09:56.136Z,17.13
2024-01-20T05:10:56.209Z,17.14
2024-01-20T05:11:56.195Z,17.14
2024-01-20T05:12:56.159Z,17.12
2024-01-20T05:13:56.203Z,17.12
2024-01-20T05:14:56.155Z,17.14
2024-01-20T05:15:56.077Z,17.14
2024-01-20T05:16:56.087Z,17.13
2024-01-20T05:17:56.279Z,17.14
2024-01-20T05:18:56.318Z,17.12
2024-01-20T05:19:56.216Z,17.13
2024-01-20T05:20:56.120Z,17.14
2024-01-20T05:21:56.223Z,17.14
2024-01-20T05:22:56.087Z,17.15
2024-01-20T05:23:56.100Z,17.15
2024-01-20T05:24:56.121Z,17.14
2024-01-20T05:25:56.120Z,17.16
2024-01-20T05:26:56.172Z,17.23
2024-01-20T05:27:56.324Z,17.18
2024-01-20T05:28:56.366Z,17.17
2024-01-20T05:29:56.376Z,17.12
2024-01-20T05:30:56.357Z,17.13
2024-01-20T05:31:56.385Z,17.12
2024-01-20T05:32:56.530Z,17.09
2024-01-20T05:33:56.749Z,17.08
2024-01-20T05:34:56.535Z,17.12
2024-01-20T05:35:56.602Z,17.08
2024-01-20T05:36:56.597Z,17.08
2024-01-20T05:37:56.637Z,17.05
2024-01-20T05:38:56.707Z,17.06
2024-01-20T05:39:57.733Z,17.06
2024-01-20T05:40:56.843Z,17.03
2024-01-20T05:41:56.861Z,17.04
2024-01-20T05:42:56.852Z,17.08
2024-01-20T05:43:56.891Z,17.05
2024-01-20T05:44:56.989Z,17.01
2024-01-20T05:45:56.987Z,17.02
2024-01-20T05:46:57.070Z,17.01
2024-01-20T05:47:57.169Z,16.97
2024-01-20T05:48:57.244Z,16.95
2024-01-20T05:49:57.204Z,16.94
2024-01-20T05:50:57.317Z,16.91
2024-01-20T05:51:57.408Z,16.95
2024-01-20T05:52:57.338Z,16.91
2024-01-20T05:53:57.481Z,16.92
2024-01-20T05:54:57.436Z,16.96
2024-01-20T05:55:57.461Z,16.94
2024-01-20T05:56:57.596Z,16.92
2024-01-20T05:57:57.543Z,16.91
2024-01-20T05:58:57.610Z,16.88
2024-01-20T05:59:57.809Z,16.91
2024-01-20T06:00:57.830Z,16.88
2024-01-20T06:01:57.775Z,16.86
2024-01-20T06:02:58.280Z,16.84
2024-01-20T06:03:57.895Z,16.81
2024-01-20T06:04:57.910Z,16.83
2024-01-20T06:05:57.970Z,16.82
2024-01-20T06:06:58.033Z,16.75
2024-01-20T06:07:58.739Z,16.75
2024-01-20T06:08:58.106Z,16.74
2024-01-20T06:09:58.171Z,16.73
2024-01-20T06:10:58.286Z,16.70
2024-01-20T06:11:58.335Z,16.76
2024-01-20T06:12:58.311Z,16.75
2024-01-20T06:13:58.375Z,16.73
2024-01-20T06:14:58.535Z,16.72
2024-01-20T06:15:58.600Z,16.71
2024-01-20T06:16:58.654Z,16.71
2024-01-20T06:17:58.712Z,16.74
2024-01-20T06:18:58.845Z,16.74
2024-01-20T06:19:58.739Z,16.75
2024-01-20T06:20:58.828Z,16.74
2024-01-20T06:21:58.837Z,16.75
2024-01-20T06:22:58.848Z,16.67
2024-01-20T06:23:59.040Z,16.66
2024-01-20T06:24:58.924Z,16.62
2024-01-20T06:25:59.004Z,16.61
2024-01-20T06:26:59.151Z,16.55
2024-01-20T06:27:59.159Z,16.60
2024-01-20T06:28:59.271Z,16.56
2024-01-20T06:29:59.261Z,16.56
2024-01-20T06:30:59.359Z,16.54
2024-01-20T06:31:59.312Z,16.56
2024-01-20T06:32:59.535Z,16.55
2024-01-20T06:33:59.504Z,16.56
2024-01-20T06:34:59.432Z,16.58
2024-01-20T06:35:59.534Z,16.58
2024-01-20T06:36:59.583Z,16.58
2024-01-20T06:37:59.599Z,16.59
2024-01-20T06:38:59.662Z,16.59
2024-01-20T06:40:00.302Z,16.56
2024-01-20T06:40:59.736Z,16.59
2024-01-20T06:41:59.901Z,16.56
2024-01-20T06:42:59.831Z,16.57
2024-01-20T06:43:59.883Z,16.55
2024-01-20T06:45:01.379Z,16.53
2024-01-20T06:46:00.066Z,16.56
2024-01-20T06:47:00.029Z,16.58
2024-01-20T06:48:00.171Z,16.62
2024-01-20T06:49:00.168Z,16.62
2024-01-20T06:50:00.115Z,16.65
2024-01-20T06:51:00.322Z,16.64
2024-01-20T06:52:00.319Z,16.64
2024-01-20T06:53:00.245Z,16.65
2024-01-20T06:54:00.392Z,16.66
2024-01-20T06:55:00.327Z,16.67
2024-01-20T06:56:00.482Z,16.69
2024-01-20T06:57:00.596Z,16.70
2024-01-20T06:58:00.499Z,16.71
2024-01-20T06:59:00.529Z,16.69
2024-01-20T07:00:00.638Z,16.69
2024-01-20T07:01:00.738Z,16.71
2024-01-20T07:02:01.299Z,16.71
2024-01-20T07:03:00.691Z,16.72
2024-01-20T07:04:00.857Z,16.71
2024-01-20T07:05:02.564Z,16.71
2024-01-20T07:06:00.989Z,16.71
2024-01-20T07:07:00.940Z,16.75
2024-01-20T07:08:01.035Z,16.76
2024-01-20T07:09:01.078Z,16.78
2024-01-20T07:10:01.073Z,16.80
2024-01-20T07:11:01.103Z,16.75
2024-01-20T07:12:01.232Z,16.78
2024-01-20T07:13:01.226Z,16.77
2024-01-20T07:14:01.271Z,16.78
2024-01-20T07:15:01.418Z,16.77
2024-01-20T07:16:01.347Z,16.82
2024-01-20T07:17:01.397Z,16.81
2024-01-20T07:18:01.849Z,16.82
2024-01-20T07:19:01.558Z,16.83
2024-01-20T07:20:01.527Z,16.85
2024-01-20T07:21:01.578Z,16.85
2024-01-20T07:22:01.613Z,16.82
2024-01-20T07:23:01.606Z,16.84
2024-01-20T07:24:01.709Z,16.87
2024-01-20T07:25:01.763Z,16.85
2024-01-20T07:26:01.704Z,16.86
2024-01-20T07:27:01.780Z,16.86
2024-01-20T07:28:01.810Z,16.85
2024-01-20T07:29:01.921Z,16.86
2024-01-20T07:30:01.961Z,16.87
2024-01-20T07:31:01.935Z,16.88
2024-01-20T07:32:01.964Z,16.89
2024-01-20T07:33:02.093Z,16.91
2024-01-20T07:34:02.155Z,16.87
2024-01-20T07:35:02.106Z,16.87
2024-01-20T07:36:02.185Z,16.90
2024-01-20T07:37:02.248Z,16.87
2024-01-20T07:38:02.262Z,16.89
2024-01-20T07:39:02.236Z,16.88
2024-01-20T07:40:02.304Z,16.87
2024-01-20T07:41:02.393Z,16.89
2024-01-20T07:42:02.382Z,16.89
2024-01-20T07:43:02.506Z,16.88
2024-01-20T07:44:02.528Z,16.88
2024-01-20T07:45:02.552Z,16.89
2024-01-20T07:46:02.644Z,16.88
2024-01-20T07:47:02.706Z,16.89
2024-01-20T07:48:02.834Z,16.93
2024-01-20T07:49:02.682Z,16.91
2024-01-20T07:50:02.704Z,16.89
2024-01-20T07:51:02.741Z,16.93
2024-01-20T07:52:02.815Z,16.89
2024-01-20T07:53:02.810Z,16.91
2024-01-20T07:54:02.892Z,16.91
2024-01-20T07:55:02.906Z,16.91
2024-01-20T07:56:02.970Z,16.89
2024-01-20T07:57:02.936Z,16.91
2024-01-20T07:58:03.113Z,16.91
2024-01-20T07:59:03.062Z,16.91
2024-01-20T08:00:03.056Z,16.91
2024-01-20T08:01:03.089Z,16.89
2024-01-20T08:02:03.138Z,16.90
2024-01-20T08:03:03.254Z,16.92
2024-01-20T08:04:03.209Z,16.91
2024-01-20T08:05:03.196Z,16.90
2024-01-20T08:06:03.460Z,16.90
2024-01-20T08:07:03.330Z,16.91
2024-01-20T08:08:03.304Z,16.93
2024-01-20T08:09:03.406Z,16.92
2024-01-20T08:10:03.410Z,16.91
2024-01-20T08:11:03.327Z,16.91
2024-01-20T08:12:03.394Z,16.92
2024-01-20T08:13:03.536Z,16.92
2024-01-20T08:14:03.482Z,16.92
2024-01-20T08:15:03.581Z,16.93
2024-01-20T08:16:03.557Z,16.93
2024-01-20T08:17:03.660Z,16.94
2024-01-20T08:18:03.737Z,16.93
2024-01-20T08:19:03.760Z,16.96
2024-01-20T08:20:03.696Z,16.92
2024-01-20T08:21:03.711Z,16.95
2024-01-20T08:22:03.797Z,16.95
2024-01-20T08:23:03.756Z,16.92
2024-01-20T08:24:03.835Z,16.93
2024-01-20T08:25:03.800Z,16.96
2024-01-20T08:26:03.851Z,16.93
2024-01-20T08:27:03.834Z,16.95
2024-01-20T08:28:03.880Z,16.92
2024-01-20T08:29:03.890Z,16.94
2024-01-20T08:30:04.064Z,16.94
2024-01-20T08:31:04.062Z,16.92
2024-01-20T08:32:03.969Z,16.94
2024-01-20T08:33:05.488Z,16.91
2024-01-20T08:34:04.192Z,16.92
2024-01-20T08:35:03.971Z,16.91
2024-01-20T08:36:04.155Z,16.90
2024-01-20T08:37:04.115Z,16.90
2024-01-20T08:38:04.028Z,16.88
2024-01-20T08:39:04.027Z,16.88
2024-01-20T08:40:04.076Z,16.89
2024-01-20T08:41:03.994Z,16.88
2024-01-20T08:42:04.111Z,16.92
2024-01-20T08:43:03.982Z,16.92
2024-01-20T08:44:04.036Z,16.89
2024-01-20T08:45:04.009Z,16.86
2024-01-20T08:46:04.000Z,16.86
2024-01-20T08:47:04.015Z,16.80
2024-01-20T08:48:04.053Z,16.76
2024-01-20T08:49:04.038Z,16.74
2024-01-20T08:50:03.989Z,16.74
2024-01-20T08:51:04.164Z,16.72
2024-01-20T08:52:04.060Z,16.69
2024-01-20T08:53:04.168Z,16.79
2024-01-20T08:54:04.118Z,16.77
2024-01-20T08:55:04.026Z,16.73
2024-01-20T08:56:04.067Z,16.68
2024-01-20T08:57:04.080Z,16.67
2024-01-20T08:58:04.038Z,16.67
2024-01-20T08:59:04.101Z,16.64
2024-01-20T09:00:11.571Z,16.69
2024-01-20T09:01:12.115Z,16.67
2024-01-20T09:02:11.354Z,16.63
2024-01-20T09:03:11.341Z,16.63
2024-01-20T09:04:11.422Z,16.62
2024-01-20T09:05:11.362Z,16.64
2024-01-20T09:06:11.347Z,16.66
2024-01-20T09:07:11.331Z,16.69
2024-01-20T09:08:11.321Z,16.65
2024-01-20T09:09:11.409Z,16.65
2024-01-20T09:10:11.295Z,16.65
2024-01-20T09:11:11.353Z,16.64
2024-01-20T09:12:11.368Z,16.65
2024-01-20T09:13:11.342Z,16.65
2024-01-20T09:14:11.324Z,16.65
2024-01-20T09:15:12.214Z,16.67
2024-01-20T09:16:11.475Z,16.70
2024-01-20T09:17:11.337Z,16.67
2024-01-20T09:18:11.460Z,16.67
2024-01-20T09:19:11.402Z,16.67
2024-01-20T09:20:11.496Z,16.70
2024-01-20T09:21:11.556Z,16.69
2024-01-20T09:22:11.372Z,16.70
2024-01-20T09:23:11.511Z,16.68
2024-01-20T09:24:11.418Z,16.70
2024-01-20T09:25:11.395Z,16.66
2024-01-20T09:26:11.328Z,16.66
2024-01-20T09:27:11.348Z,16.67
2024-01-20T09:28:11.323Z,16.65
2024-01-20T09:29:11.410Z,16.62
2024-01-20T09:30:11.425Z,16.61
2024-01-20T09:31:11.324Z,16.60
2024-01-20T09:32:11.396Z,16.61
2024-01-20T09:33:12.005Z,16.58
2024-01-20T09:34:11.505Z,16.60
2024-01-20T09:35:11.374Z,16.56
2024-01-20T09:36:11.344Z,16.56
2024-01-20T09:37:12.350Z,16.55
2024-01-20T09:38:11.391Z,16.56
2024-01-20T09:39:11.295Z,16.56
2024-01-20T09:40:11.308Z,16.55
2024-01-20T09:41:11.380Z,16.56
2024-01-20T09:42:11.505Z,16.54
2024-01-20T09:43:11.326Z,16.55
2024-01-20T09:44:11.397Z,16.52
2024-01-20T09:45:11.470Z,16.52
2024-01-20T09:46:11.437Z,16.47
2024-01-20T09:47:11.524Z,16.46
2024-01-20T09:48:11.635Z,16.50
2024-01-20T09:49:11.616Z,16.45
2024-01-20T09:50:11.571Z,16.46
2024-01-20T09:51:11.657Z,16.50
2024-01-20T09:52:11.589Z,16.47
2024-01-20T09:53:11.660Z,16.48
2024-01-20T09:54:11.660Z,16.46
2024-01-20T09:55:11.782Z,16.44
2024-01-20T09:56:11.783Z,16.46
2024-01-20T09:57:11.755Z,16.40
2024-01-20T09:58:11.805Z,16.40
2024-01-20T09:59:11.906Z,16.39
2024-01-20T10:00:11.887Z,16.39
2024-01-20T10:01:11.903Z,16.37
2024-01-20T10:02:11.952Z,16.37
2024-01-20T10:03:12.008Z,16.38
2024-01-20T10:04:12.116Z,16.36
2024-01-20T10:05:12.057Z,16.35
2024-01-20T10:06:12.181Z,16.36
2024-01-20T10:07:12.191Z,16.30
2024-01-20T10:08:12.134Z,16.30
2024-01-20T10:09:12.238Z,16.29
2024-01-20T10:10:12.278Z,16.30
2024-01-20T10:11:12.308Z,16.28
2024-01-20T10:12:12.409Z,16.26
2024-01-20T10:13:12.332Z,16.26
2024-01-20T10:14:12.368Z,16.26
2024-01-20T10:15:12.498Z,16.23
2024-01-20T10:16:12.428Z,16.24
2024-01-20T10:17:12.499Z,16.22
2024-01-20T10:18:12.958Z,16.21
2024-01-20T10:19:13.498Z,16.24
2024-01-20T10:20:12.621Z,16.22
2024-01-20T10:21:12.723Z,16.23
2024-01-20T10:22:12.670Z,16.24
2024-01-20T10:23:12.684Z,16.24
2024-01-20T10:24:12.808Z,16.24
2024-01-20T10:25:12.798Z,16.24
2024-01-20T10:26:12.726Z,16.26
2024-01-20T10:27:12.799Z,16.23
2024-01-20T10:28:12.841Z,16.22
2024-01-20T10:29:12.870Z,16.18
2024-01-20T10:30:12.875Z,16.21
2024-01-20T10:31:12.978Z,16.19
2024-01-20T10:32:12.950Z,16.19
2024-01-20T10:33:13.053Z,16.19
2024-01-20T10:34:13.289Z,16.19
2024-01-20T10:35:13.548Z,16.20
2024-01-20T10:36:13.139Z,16.19
2024-01-20T10:37:13.139Z,16.22
2024-01-20T10:38:13.216Z,16.22
2024-01-20T10:39:13.375Z,16.23
2024-01-20T10:40:13.575Z,16.22
2024-01-20T10:41:13.269Z,16.28
2024-01-20T10:42:13.337Z,16.26
2024-01-20T10:43:13.378Z,16.26
2024-01-20T10:44:13.383Z,16.30
2024-01-20T10:45:13.479Z,16.25
2024-01-20T10:46:13.396Z,16.25
2024-01-20T10:47:13.482Z,16.24
2024-01-20T10:48:13.703Z,16.25
2024-01-20T10:49:13.689Z,16.27
2024-01-20T10:50:13.598Z,16.31
2024-01-20T10:51:13.668Z,16.30
2024-01-20T10:52:13.820Z,16.29
2024-01-20T10:53:13.644Z,16.33
2024-01-20T10:54:13.765Z,16.32
2024-01-20T10:55:13.744Z,16.30
2024-01-20T10:56:13.780Z,16.33
2024-01-20T10:57:13.813Z,16.29
2024-01-20T10:58:13.879Z,16.31
2024-01-20T10:59:16.279Z,16.29
2024-01-20T11:00:13.871Z,16.30
2024-01-20T11:01:13.889Z,16.31
2024-01-20T11:02:13.926Z,16.30
2024-01-20T11:03:13.968Z,16.30
2024-01-20T11:04:13.948Z,16.29
2024-01-20T11:05:13.912Z,16.30
2024-01-20T11:06:13.904Z,16.31
2024-01-20T11:07:13.835Z,16.32
2024-01-20T11:08:13.845Z,16.32
2024-01-20T11:09:13.856Z,16.28
2024-01-20T11:10:13.864Z,16.25
2024-01-20T11:11:13.996Z,16.27
2024-01-20T11:12:14.019Z,16.25
2024-01-20T11:13:13.983Z,16.23
2024-01-20T11:14:13.857Z,16.21
2024-01-20T11:15:13.979Z,16.25
2024-01-20T11:16:13.930Z,16.23
2024-01-20T11:17:13.919Z,16.22
2024-01-20T11:18:13.955Z,16.21
2024-01-20T11:19:14.057Z,16.25
2024-01-20T11:20:13.954Z,16.21
2024-01-20T11:21:13.952Z,16.19
2024-01-20T11:22:13.914Z,16.19
2024-01-20T11:23:13.966Z,16.20
2024-01-20T11:24:16.064Z,16.17
2024-01-20T11:25:13.888Z,16.16
2024-01-20T11:26:13.936Z,16.13
2024-01-20T11:27:14.056Z,16.14
2024-01-20T11:28:14.092Z,16.15
2024-01-20T11:29:14.026Z,16.13
2024-01-20T11:30:15.643Z,16.14
2024-01-20T11:31:14.315Z,16.14
2024-01-20T11:32:14.190Z,16.11
2024-01-20T11:33:14.306Z,16.10
2024-01-20T11:34:14.407Z,16.11
2024-01-20T11:35:14.387Z,16.11
2024-01-20T11:36:14.442Z,16.08
2024-01-20T11:37:14.346Z,16.06
2024-01-20T11:38:14.394Z,16.08
2024-01-20T11:39:14.526Z,16.06
2024-01-20T11:40:14.534Z,16.09
2024-01-20T11:41:14.472Z,16.10
2024-01-20T11:42:14.676Z,16.08
2024-01-20T11:43:14.512Z,16.08
2024-01-20T11:44:14.830Z,16.08
2024-01-20T11:45:14.687Z,16.09
2024-01-20T11:46:14.719Z,16.07
2024-01-20T11:47:14.744Z,16.08
2024-01-20T11:48:15.623Z,16.08
2024-01-20T11:49:14.901Z,16.08
2024-01-20T11:50:14.874Z,16.07
2024-01-20T11:51:14.906Z,16.05
2024-01-20T11:52:15.095Z,16.05
2024-01-20T11:53:14.859Z,16.05
2024-01-20T11:54:15.016Z,16.02
2024-01-20T11:55:14.985Z,16.06
2024-01-20T11:56:15.006Z,16.04
2024-01-20T11:57:15.000Z,16.05
2024-01-20T11:58:15.125Z,16.06
2024-01-20T11:59:15.112Z,16.06
2024-01-20T12:00:15.175Z,16.01
2024-01-20T12:01:15.370Z,16.05
2024-01-20T12:02:15.233Z,16.03
2024-01-20T12:03:15.331Z,16.04
2024-01-20T12:04:15.384Z,16.01
2024-01-20T12:05:18.591Z,16.08
2024-01-20T12:06:16.677Z,16.04
2024-01-20T12:07:15.453Z,16.03
2024-01-20T12:08:15.380Z,15.99
2024-01-20T12:09:15.359Z,15.96
2024-01-20T12:10:15.241Z,16.01
2024-01-20T12:11:15.250Z,15.99
2024-01-20T12:12:15.257Z,15.96
2024-01-20T12:13:17.422Z,15.99
2024-01-20T12:14:15.297Z,15.96
2024-01-20T12:15:15.356Z,15.96
2024-01-20T12:16:15.361Z,15.96
2024-01-20T12:17:15.298Z,15.96
2024-01-20T12:18:15.364Z,15.96
2024-01-20T12:19:15.324Z,15.95
2024-01-20T12:20:15.385Z,15.92
2024-01-20T12:21:15.329Z,15.91
2024-01-20T12:22:15.408Z,15.90
2024-01-20T12:23:15.485Z,15.89
2024-01-20T12:24:15.459Z,15.88
2024-01-20T12:25:16.191Z,15.87
2024-01-20T12:26:15.410Z,15.89
2024-01-20T12:27:15.418Z,15.91
2024-01-20T12:28:15.261Z,15.88
2024-01-20T12:29:15.336Z,15.85
2024-01-20T12:30:15.279Z,15.84
2024-01-20T12:31:17.538Z,15.83
2024-01-20T12:32:15.317Z,15.77
2024-01-20T12:33:15.497Z,15.77
2024-01-20T12:34:15.353Z,15.75
2024-01-20T12:35:15.388Z,15.76
2024-01-20T12:36:15.351Z,15.78
2024-01-20T12:37:15.306Z,15.73
2024-01-20T12:38:15.267Z,15.74
2024-01-20T12:39:15.556Z,15.73
2024-01-20T12:40:15.298Z,15.73
2024-01-20T12:41:15.354Z,15.73
2024-01-20T12:42:15.369Z,15.71
2024-01-20T12:43:15.272Z,15.75
2024-01-20T12:44:15.270Z,15.73
2024-01-20T12:45:15.300Z,15.78
2024-01-20T12:46:15.317Z,15.79
2024-01-20T12:47:15.285Z,15.79
2024-01-20T12:48:18.135Z,15.83
2024-01-20T12:49:15.451Z,15.84
2024-01-20T12:50:15.271Z,15.83
2024-01-20T12:51:15.340Z,15.85
2024-01-20T12:52:15.335Z,15.86
2024-01-20T12:53:15.312Z,15.88